createdAt,value
2023-02-14T00:00:35.502Z,14.90
2023-02-14T00:03:02.876Z,15.13
2023-02-14T00:05:30.275Z,14.95
2023-02-14T00:07:57.703Z,14.00
2023-02-14T00:10:25.255Z,13.43
2023-02-14T00:12:53.947Z,15.15
2023-02-14T00:15:23.532Z,14.55
2023-02-14T00:17:51.225Z,13.77
2023-02-14T00:20:18.751Z,14.52
2023-02-14T00:22:46.086Z,14.23
2023-02-14T00:25:13.707Z,13.70
2023-02-14T00:27:41.169Z,14.63
2023-02-14T00:30:10.476Z,14.15
2023-02-14T00:32:38.399Z,14.15
2023-02-14T00:35:06.157Z,14.68
2023-02-14T00:37:33.545Z,13.98
2023-02-14T00:40:00.833Z,14.82
2023-02-14T00:42:28.110Z,14.35
2023-02-14T00:44:55.482Z,13.75
2023-02-14T00:47:24.135Z,14.85
2023-02-14T00:49:51.434Z,13.88
2023-02-14T00:52:18.735Z,13.27
2023-02-14T00:54:46.100Z,14.40
2023-02-14T00:57:13.419Z,13.23
2023-02-14T00:59:40.700Z,13.48
2023-02-14T01:02:08.048Z,14.70
2023-02-14T01:04:36.724Z,13.43
2023-02-14T01:07:04.033Z,13.98
2023-02-14T01:09:31.356Z,14.05
2023-02-14T01:11:58.659Z,14.82
2023-02-14T01:14:26.007Z,15.02
2023-02-14T01:16:53.359Z,16.42
2023-02-14T01:19:20.650Z,14.48
2023-02-14T01:21:49.296Z,15.57
2023-02-14T01:24:16.617Z,14.48
2023-02-14T01:26:43.922Z,14.98
2023-02-14T01:29:12.474Z,15.35
2023-02-14T01:31:39.855Z,15.43
2023-02-14T01:34:07.242Z,15.25
2023-02-14T01:36:35.953Z,15.32
2023-02-14T01:39:05.741Z,15.52
2023-02-14T01:41:34.322Z,15.18
2023-02-14T01:44:02.476Z,14.70
2023-02-14T01:46:31.010Z,13.77
2023-02-14T01:49:01.314Z,14.43
2023-02-14T01:51:29.371Z,14.85
2023-02-14T01:53:57.449Z,14.80
2023-02-14T01:56:28.794Z,14.27
2023-02-14T01:58:57.160Z,13.95
2023-02-14T02:01:24.735Z,13.82
2023-02-14T02:03:54.020Z,15.43
2023-02-14T02:06:23.182Z,14.48
2023-02-14T02:08:53.081Z,16.00
2023-02-14T02:11:20.465Z,15.88
2023-02-14T02:13:49.223Z,16.20
2023-02-14T02:16:22.978Z,16.08
2023-02-14T02:18:58.803Z,15.47
2023-02-14T02:21:50.433Z,13.93
2023-02-14T02:24:25.451Z,15.30
2023-02-14T02:27:08.581Z,14.75
2023-02-14T02:29:59.856Z,15.07
2023-02-14T02:32:45.121Z,14.50
2023-02-14T02:35:39.326Z,15.63
2023-02-14T02:38:12.946Z,14.85
2023-02-14T02:40:45.601Z,14.73
2023-02-14T02:43:18.050Z,14.75
2023-02-14T02:46:06.323Z,16.17
2023-02-14T02:48:37.920Z,15.00
2023-02-14T02:51:25.091Z,15.75
2023-02-14T02:53:55.230Z,15.60
2023-02-14T02:56:42.904Z,15.27
2023-02-14T02:59:18.104Z,15.75
2023-02-14T03:01:48.795Z,15.95
2023-02-14T03:04:35.238Z,15.05
2023-02-14T03:07:23.262Z,15.50
2023-02-14T03:09:53.810Z,17.80
2023-02-14T03:12:33.212Z,17.63
2023-02-14T03:15:05.654Z,16.77
2023-02-14T03:17:37.141Z,17.13
2023-02-14T03:20:14.594Z,17.03
2023-02-14T03:22:45.084Z,18.60
2023-02-14T03:25:18.042Z,18.05
2023-02-14T03:27:47.014Z,17.17
2023-02-14T03:30:18.741Z,17.48
2023-02-14T03:32:49.302Z,17.38
2023-02-14T03:35:19.261Z,17.52
2023-02-14T03:37:48.759Z,17.77
2023-02-14T03:40:20.403Z,17.52
2023-02-14T03:42:50.829Z,18.17
2023-02-14T03:45:21.453Z,18.55
2023-02-14T03:47:49.774Z,18.25
2023-02-14T03:50:19.478Z,18.33
2023-02-14T03:52:47.438Z,19.15
2023-02-14T03:55:16.660Z,19.65
2023-02-14T03:57:48.628Z,20.48
2023-02-14T04:00:18.170Z,20.17
2023-02-14T04:02:46.996Z,20.23
2023-02-14T04:05:16.820Z,19.83
2023-02-14T04:07:47.669Z,20.02
2023-02-14T04:10:15.249Z,21.05
2023-02-14T04:12:42.555Z,19.63
2023-02-14T04:15:11.888Z,20.40
2023-02-14T04:17:57.169Z,21.10
2023-02-14T04:20:24.702Z,22.27
2023-02-14T04:22:52.417Z,20.42
2023-02-14T04:25:20.234Z,20.33
2023-02-14T04:27:47.820Z,19.23
2023-02-14T04:30:17.880Z,20.27
2023-02-14T04:32:46.587Z,17.73
2023-02-14T04:35:13.929Z,21.00
2023-02-14T04:37:41.743Z,18.85
2023-02-14T04:40:09.508Z,19.25
2023-02-14T04:42:36.794Z,20.10
2023-02-14T04:45:04.588Z,18.33
2023-02-14T04:47:32.013Z,20.13
2023-02-14T04:50:00.705Z,18.77
2023-02-14T04:52:28.054Z,21.08
2023-02-14T04:54:55.419Z,18.92
2023-02-14T04:57:23.037Z,19.10
2023-02-14T04:59:50.403Z,19.27
2023-02-14T05:02:17.788Z,20.42
2023-02-14T05:04:45.282Z,20.38
2023-02-14T05:07:13.927Z,20.80
2023-02-14T05:09:41.206Z,21.10
2023-02-14T05:12:08.566Z,22.00
2023-02-14T05:14:35.895Z,22.35
2023-02-14T05:17:03.175Z,22.30
2023-02-14T05:19:30.485Z,21.60
2023-02-14T05:21:57.844Z,23.23
2023-02-14T05:24:26.536Z,22.30
2023-02-14T05:26:53.857Z,22.42
2023-02-14T05:29:21.128Z,23.88
2023-02-14T05:31:48.539Z,23.40
2023-02-14T05:34:15.865Z,24.48
2023-02-14T05:36:43.164Z,24.90
2023-02-14T05:39:10.750Z,23.30
2023-02-14T05:41:39.590Z,24.67
2023-02-14T05:44:06.866Z,23.50
2023-02-14T05:46:34.185Z,25.75
2023-02-14T05:49:01.464Z,25.60
2023-02-14T05:51:28.762Z,25.10
2023-02-14T05:53:57.714Z,23.42
2023-02-14T05:56:25.072Z,24.35
2023-02-14T05:58:53.710Z,25.33
2023-02-14T06:01:21.042Z,26.40
2023-02-14T06:03:48.372Z,26.52
2023-02-14T06:06:15.667Z,25.35
2023-02-14T06:08:42.970Z,28.80
2023-02-14T06:11:10.274Z,26.08
2023-02-14T06:13:37.620Z,27.05
2023-02-14T06:16:06.656Z,27.33
2023-02-14T06:18:33.970Z,29.05
2023-02-14T06:21:01.534Z,31.00
2023-02-14T06:23:29.119Z,29.70
2023-02-14T06:25:56.506Z,29.27
2023-02-14T06:28:24.084Z,30.42
2023-02-14T06:30:51.683Z,31.25
2023-02-14T06:33:20.479Z,30.80
2023-02-14T06:35:47.837Z,30.42
2023-02-14T06:38:15.131Z,31.95
2023-02-14T06:40:42.482Z,32.97
2023-02-14T06:43:09.788Z,33.00
2023-02-14T06:45:37.226Z,31.95
2023-02-14T06:48:04.769Z,30.98
2023-02-14T06:50:34.133Z,32.38
2023-02-14T06:53:01.433Z,33.85
2023-02-14T06:55:28.732Z,30.80
2023-02-14T06:57:56.048Z,33.53
2023-02-14T07:00:23.396Z,33.80
2023-02-14T07:02:50.759Z,33.72
2023-02-14T07:05:18.818Z,34.90
2023-02-14T07:07:47.501Z,35.17
2023-02-14T07:10:14.896Z,35.28
2023-02-14T07:12:42.248Z,34.50
2023-02-14T07:15:10.968Z,38.03
2023-02-14T07:17:38.641Z,37.20
2023-02-14T07:20:06.970Z,37.13
2023-02-14T07:22:34.284Z,35.75
2023-02-14T07:25:03.138Z,35.08
2023-02-14T07:27:30.420Z,35.47
2023-02-14T07:29:57.773Z,38.33
2023-02-14T07:32:25.379Z,36.28
2023-02-14T07:34:52.782Z,36.63
2023-02-14T07:37:20.079Z,32.92
2023-02-14T07:39:47.356Z,32.65
2023-02-14T07:42:16.046Z,33.35
2023-02-14T07:44:44.115Z,32.50
2023-02-14T07:47:11.709Z,29.55
2023-02-14T07:49:39.118Z,30.55
2023-02-14T07:52:06.501Z,28.63
2023-02-14T07:54:34.048Z,28.52
2023-02-14T07:57:01.342Z,30.02
2023-02-14T07:59:30.095Z,27.73
2023-02-14T08:01:57.497Z,27.90
2023-02-14T08:04:25.975Z,28.38
2023-02-14T08:06:53.552Z,27.05
2023-02-14T08:09:25.403Z,26.38
2023-02-14T08:12:10.475Z,27.73
2023-02-14T08:17:07.181Z,27.33
2023-02-14T08:19:34.476Z,29.10
2023-02-14T08:22:01.824Z,27.45
2023-02-14T08:24:29.282Z,26.80
2023-02-14T08:26:56.618Z,27.08
2023-02-14T08:29:23.915Z,28.08
2023-02-14T08:31:52.817Z,29.05
2023-02-14T08:34:21.572Z,28.95
2023-02-14T08:36:48.874Z,26.67
2023-02-14T08:39:16.163Z,23.73
2023-02-14T08:41:43.505Z,26.98
2023-02-14T08:44:11.459Z,27.85
2023-02-14T08:46:38.774Z,29.13
2023-02-14T08:49:06.299Z,28.10
2023-02-14T08:51:34.946Z,28.05
2023-02-14T08:54:02.308Z,27.13
2023-02-14T08:56:29.605Z,25.92
2023-02-14T08:58:56.891Z,26.48
2023-02-14T09:01:24.360Z,21.52
2023-02-14T09:03:51.791Z,25.70
2023-02-14T09:06:19.191Z,25.60
2023-02-14T09:08:47.814Z,21.08
2023-02-14T09:11:16.006Z,24.95
2023-02-14T09:13:43.632Z,26.88
2023-02-14T09:16:11.953Z,21.98
2023-02-14T09:18:39.389Z,25.58
2023-02-14T09:21:10.578Z,25.80
2023-02-14T09:23:38.047Z,26.63
2023-02-14T09:26:07.853Z,23.25
2023-02-14T09:28:35.246Z,26.13
2023-02-14T09:31:09.785Z,24.70
2023-02-14T09:33:54.710Z,24.75
2023-02-14T09:36:22.006Z,23.58
2023-02-14T09:38:49.326Z,26.20
2023-02-14T09:41:30.047Z,25.48
2023-02-14T09:44:00.478Z,24.95
2023-02-14T09:46:29.586Z,25.33
2023-02-14T09:48:57.157Z,24.08
2023-02-14T09:51:26.407Z,24.52
2023-02-14T09:53:56.059Z,25.85
2023-02-14T09:56:28.115Z,25.20
2023-02-14T09:59:01.790Z,24.73
2023-02-14T10:01:31.535Z,24.77
2023-02-14T10:04:04.120Z,25.95
2023-02-14T10:06:45.980Z,25.05
2023-02-14T10:09:17.773Z,24.75
2023-02-14T10:11:47.077Z,26.50
2023-02-14T10:14:16.157Z,23.80
2023-02-14T10:16:47.079Z,23.33
2023-02-14T10:19:18.125Z,23.08
2023-02-14T10:21:47.966Z,26.20
2023-02-14T10:24:17.718Z,22.00
2023-02-14T10:26:48.135Z,24.38
2023-02-14T10:29:16.266Z,23.35
2023-02-14T10:31:50.038Z,22.70
2023-02-14T10:34:21.085Z,22.40
2023-02-14T10:36:52.594Z,18.30
2023-02-14T10:39:37.646Z,23.63
2023-02-14T10:42:10.552Z,23.08
2023-02-14T10:44:43.577Z,22.75
2023-02-14T10:47:15.251Z,21.45
2023-02-14T10:49:47.292Z,21.73
2023-02-14T10:52:18.979Z,21.23
2023-02-14T10:54:48.461Z,22.48
2023-02-14T10:57:18.513Z,22.02
2023-02-14T10:59:49.742Z,21.48
2023-02-14T11:02:18.205Z,21.38
2023-02-14T11:04:47.146Z,19.67
2023-02-14T11:07:14.650Z,20.98
2023-02-14T11:09:41.963Z,21.33
2023-02-14T11:12:09.487Z,22.30
2023-02-14T11:14:38.827Z,21.58
2023-02-14T11:17:28.788Z,20.40
2023-02-14T11:20:01.843Z,18.48
2023-02-14T11:22:33.215Z,21.30
2023-02-14T11:25:04.802Z,20.42
2023-02-14T11:27:32.321Z,20.48
2023-02-14T11:30:02.121Z,19.50
2023-02-14T11:32:30.763Z,20.73
2023-02-14T11:35:01.328Z,19.98
2023-02-14T11:37:29.493Z,19.05
2023-02-14T11:39:57.768Z,20.67
2023-02-14T11:42:36.620Z,20.88
2023-02-14T11:45:06.843Z,20.52
2023-02-14T11:47:37.259Z,20.92
2023-02-14T11:50:06.448Z,20.90
2023-02-14T11:52:34.329Z,21.15
2023-02-14T11:55:01.961Z,20.27
2023-02-14T11:57:32.459Z,19.77
2023-02-14T12:00:01.397Z,20.25
2023-02-14T12:02:32.802Z,20.98
2023-02-14T12:05:01.329Z,20.98
2023-02-14T12:07:30.615Z,18.38
2023-02-14T12:10:09.420Z,19.27
2023-02-14T12:12:36.857Z,19.52
2023-02-14T12:15:23.174Z,19.25
2023-02-14T12:17:54.272Z,19.25
2023-02-14T12:20:26.720Z,19.42
2023-02-14T12:22:59.097Z,20.20
2023-02-14T12:25:28.076Z,19.25
2023-02-14T12:27:57.679Z,17.88
2023-02-14T12:30:25.815Z,18.27
2023-02-14T12:32:56.314Z,20.25
2023-02-14T12:35:37.373Z,18.00
2023-02-14T12:38:07.605Z,17.55
2023-02-14T12:40:40.877Z,18.92
2023-02-14T12:43:16.408Z,17.48
2023-02-14T12:45:50.268Z,18.15
2023-02-14T12:48:23.238Z,18.53
2023-02-14T12:50:52.928Z,18.75
2023-02-14T12:53:35.146Z,17.27
2023-02-14T12:56:06.520Z,17.88
2023-02-14T12:58:47.424Z,16.48
2023-02-14T13:01:32.802Z,17.63
2023-02-14T13:04:26.193Z,17.67
2023-02-14T13:06:56.691Z,17.75
2023-02-14T13:09:30.638Z,17.17
2023-02-14T13:12:01.533Z,16.52
2023-02-14T13:14:37.489Z,16.02
2023-02-14T13:17:12.132Z,16.73
2023-02-14T13:19:43.216Z,16.35
2023-02-14T13:22:14.276Z,16.35
2023-02-14T13:24:42.887Z,17.63
2023-02-14T13:27:17.219Z,16.67
2023-02-14T13:29:46.097Z,16.58
2023-02-14T13:32:15.717Z,17.85
2023-02-14T13:34:45.011Z,15.90
2023-02-14T13:37:14.822Z,16.35
2023-02-14T13:39:44.019Z,16.52
2023-02-14T13:42:11.536Z,16.50
2023-02-14T13:44:46.075Z,17.92
2023-02-14T13:47:20.689Z,15.80
2023-02-14T13:49:49.625Z,17.23
2023-02-14T13:52:31.828Z,16.50
2023-02-14T13:55:03.095Z,16.88
2023-02-14T13:57:33.834Z,16.77
2023-02-14T14:00:19.984Z,17.25
2023-02-14T14:02:48.117Z,17.35
2023-02-14T14:05:47.442Z,17.02
2023-02-14T14:08:19.143Z,16.77
2023-02-14T14:10:49.655Z,16.10
2023-02-14T14:13:31.910Z,17.77
2023-02-14T14:16:14.194Z,17.23
2023-02-14T14:18:43.534Z,17.10
2023-02-14T14:21:15.538Z,18.20
2023-02-14T14:23:43.162Z,17.40
2023-02-14T14:26:34.913Z,17.00
2023-02-14T14:29:02.420Z,15.23
2023-02-14T14:31:30.181Z,16.13
2023-02-14T14:34:01.172Z,15.65
2023-02-14T14:36:28.699Z,16.88
2023-02-14T14:38:56.040Z,15.48
2023-02-14T14:41:28.643Z,15.57
2023-02-14T14:43:57.372Z,14.68
2023-02-14T14:46:24.890Z,15.40
2023-02-14T14:48:54.342Z,15.70
2023-02-14T14:51:25.441Z,14.50
2023-02-14T14:53:53.991Z,13.88
2023-02-14T14:56:23.030Z,14.40
2023-02-14T14:58:50.621Z,13.30
2023-02-14T15:01:31.533Z,12.70
2023-02-14T15:04:10.580Z,13.95
2023-02-14T15:06:40.810Z,13.63
2023-02-14T15:09:12.522Z,14.63
2023-02-14T15:12:06.439Z,14.27
2023-02-14T15:14:35.279Z,14.05
2023-02-14T15:17:08.323Z,14.05
2023-02-14T15:19:38.561Z,15.05
2023-02-14T15:22:07.505Z,14.60
2023-02-14T15:24:35.146Z,15.55
2023-02-14T15:27:05.750Z,13.45
2023-02-14T15:29:33.771Z,15.30
2023-02-14T15:32:04.237Z,14.45
2023-02-14T15:34:35.872Z,14.52
2023-02-14T15:37:07.045Z,15.35
2023-02-14T15:39:36.374Z,15.25
2023-02-14T15:42:04.673Z,15.27
2023-02-14T15:44:32.134Z,14.57
2023-02-14T15:47:03.276Z,14.80
2023-02-14T15:49:34.010Z,14.40
2023-02-14T15:52:02.092Z,14.98
2023-02-14T15:54:33.151Z,15.43
2023-02-14T15:57:00.954Z,15.15
2023-02-14T15:59:31.063Z,15.85
2023-02-14T16:01:59.929Z,14.85
2023-02-14T16:04:28.530Z,15.20
2023-02-14T16:07:20.732Z,16.15
2023-02-14T16:09:48.311Z,15.02
2023-02-14T16:12:25.228Z,16.33
2023-02-14T16:15:02.280Z,15.52
2023-02-14T16:17:33.455Z,15.00
2023-02-14T16:20:00.914Z,15.25
2023-02-14T16:22:31.917Z,15.52
2023-02-14T16:24:59.233Z,15.13
2023-02-14T16:27:26.573Z,15.32
2023-02-14T16:29:53.918Z,15.15
2023-02-14T16:32:22.094Z,14.95
2023-02-14T16:34:49.863Z,15.32
2023-02-14T16:37:20.414Z,15.25
2023-02-14T16:39:49.419Z,15.65
2023-02-14T16:42:17.587Z,15.63
2023-02-14T16:44:44.926Z,17.08
2023-02-14T16:50:02.146Z,16.65
2023-02-14T16:52:29.526Z,16.40
2023-02-14T16:54:58.401Z,16.25
2023-02-14T16:57:28.190Z,17.13
2023-02-14T16:59:57.159Z,16.65
2023-02-14T17:02:26.215Z,16.75
2023-02-14T17:04:53.624Z,16.92
2023-02-14T17:07:21.894Z,17.23
2023-02-14T17:09:53.984Z,16.40
2023-02-14T17:12:24.418Z,16.15
2023-02-14T17:14:54.357Z,16.88
2023-02-14T17:17:21.726Z,16.50
2023-02-14T17:19:51.496Z,15.80
2023-02-14T17:22:20.042Z,17.20
2023-02-14T17:24:49.744Z,16.92
2023-02-14T17:27:17.073Z,16.67
2023-02-14T17:29:45.771Z,17.33
2023-02-14T17:32:13.595Z,16.25
2023-02-14T17:34:41.697Z,16.35
2023-02-14T17:37:09.120Z,18.15
2023-02-14T17:39:36.482Z,18.38
2023-02-14T17:42:03.905Z,17.77
2023-02-14T17:44:35.723Z,18.30
2023-02-14T17:47:04.908Z,17.85
2023-02-14T17:49:32.280Z,18.17
2023-02-14T17:51:59.640Z,18.27
2023-02-14T17:54:27.074Z,18.50
2023-02-14T17:56:54.371Z,18.75
2023-02-14T17:59:22.361Z,20.20
2023-02-14T18:01:50.772Z,19.15
2023-02-14T18:04:19.628Z,20.25
2023-02-14T18:06:47.666Z,21.42
2023-02-14T18:09:15.245Z,19.35
2023-02-14T18:11:44.391Z,18.77
2023-02-14T18:14:11.818Z,19.48
2023-02-14T18:16:39.804Z,19.95
2023-02-14T18:19:08.560Z,21.25
2023-02-14T18:21:40.000Z,19.45
2023-02-14T18:24:07.976Z,19.08
2023-02-14T18:26:36.710Z,20.45
2023-02-14T18:29:06.483Z,20.23
2023-02-14T18:31:34.235Z,20.48
2023-02-14T18:34:02.117Z,20.23
2023-02-14T18:36:31.543Z,22.08
2023-02-14T18:39:00.531Z,21.20
2023-02-14T18:41:28.266Z,21.88
2023-02-14T18:43:55.747Z,21.60
2023-02-14T18:46:24.344Z,21.10
2023-02-14T18:48:55.519Z,21.55
2023-02-14T18:51:33.805Z,21.70
2023-02-14T18:54:13.565Z,22.20
2023-02-14T18:56:41.406Z,24.45
2023-02-14T18:59:10.939Z,21.73
2023-02-14T19:01:40.586Z,22.92
2023-02-14T19:04:13.635Z,24.75
2023-02-14T19:06:46.641Z,24.55
2023-02-14T19:09:17.306Z,25.42
2023-02-14T19:11:49.887Z,23.02
2023-02-14T19:14:18.744Z,23.60
2023-02-14T19:16:50.239Z,22.20
2023-02-14T19:19:18.321Z,23.33
2023-02-14T19:21:45.639Z,23.83
2023-02-14T19:24:14.553Z,22.88
2023-02-14T19:26:43.606Z,23.67
2023-02-14T19:29:11.635Z,21.80
2023-02-14T19:31:40.343Z,23.58
2023-02-14T19:34:08.850Z,23.27
2023-02-14T19:36:37.422Z,24.92
2023-02-14T19:39:04.966Z,24.67
2023-02-14T19:41:34.321Z,25.40
2023-02-14T19:44:04.473Z,25.00
2023-02-14T19:46:32.539Z,25.42
2023-02-14T19:49:00.321Z,24.88
2023-02-14T19:51:29.106Z,24.67
2023-02-14T19:53:57.048Z,24.70
2023-02-14T19:56:25.716Z,26.48
2023-02-14T19:58:53.015Z,26.73
2023-02-14T20:01:23.835Z,27.52
2023-02-14T20:03:51.165Z,26.67
2023-02-14T20:06:18.495Z,28.63
2023-02-14T20:08:47.626Z,26.30
2023-02-14T20:11:22.190Z,27.38
2023-02-14T20:13:49.485Z,26.88
2023-02-14T20:16:17.410Z,28.25
2023-02-14T20:18:46.784Z,28.85
2023-02-14T20:21:16.609Z,32.08
2023-02-14T20:23:43.961Z,30.23
2023-02-14T20:26:12.380Z,31.77
2023-02-14T20:28:39.752Z,30.40
2023-02-14T20:31:08.143Z,31.00
2023-02-14T20:33:35.490Z,29.40
2023-02-14T20:36:05.974Z,29.80
2023-02-14T20:38:33.560Z,31.17
2023-02-14T20:41:04.125Z,31.80
2023-02-14T20:43:31.947Z,30.52
2023-02-14T20:45:59.884Z,32.38
2023-02-14T20:48:27.399Z,33.08
2023-02-14T20:50:54.736Z,32.35
2023-02-14T20:53:23.658Z,31.67
2023-02-14T20:55:51.303Z,31.17
2023-02-14T20:58:18.962Z,31.38
2023-02-14T21:00:46.716Z,31.48
2023-02-14T21:03:14.047Z,32.00
2023-02-14T21:05:42.154Z,33.60
2023-02-14T21:08:09.568Z,33.50
2023-02-14T21:10:38.242Z,33.53
2023-02-14T21:13:05.584Z,33.42
2023-02-14T21:15:32.933Z,32.72
2023-02-14T21:18:00.230Z,32.70
2023-02-14T21:20:27.502Z,35.30
2023-02-14T21:22:56.908Z,36.08
2023-02-14T21:25:26.589Z,37.28
2023-02-14T21:27:55.399Z,33.35
2023-02-14T21:30:22.786Z,33.15
2023-02-14T21:32:50.075Z,34.53
2023-02-14T21:35:17.475Z,35.13
2023-02-14T21:37:44.796Z,33.80
2023-02-14T21:40:12.321Z,34.25
2023-02-14T21:42:39.682Z,33.15
2023-02-14T21:45:26.639Z,31.55
2023-02-14T21:48:07.910Z,33.58
2023-02-14T21:50:35.364Z,32.78
2023-02-14T21:53:03.257Z,32.90
2023-02-14T21:55:30.559Z,33.20
2023-02-14T21:57:57.848Z,32.80
2023-02-14T22:00:26.519Z,34.63
2023-02-14T22:02:54.099Z,33.85
2023-02-14T22:05:21.551Z,35.05
2023-02-14T22:07:48.848Z,37.60
2023-02-14T22:10:16.144Z,37.50
2023-02-14T22:12:43.466Z,35.30
2023-02-14T22:15:10.883Z,38.28
2023-02-14T22:17:39.528Z,37.55
2023-02-14T22:20:10.053Z,37.42
2023-02-14T22:22:37.428Z,38.58
2023-02-14T22:25:04.818Z,36.33
2023-02-14T22:27:32.140Z,37.03
2023-02-14T22:29:59.484Z,35.45
2023-02-14T22:32:26.806Z,37.40
2023-02-14T22:34:55.737Z,37.75
2023-02-14T22:37:23.085Z,37.25
2023-02-14T22:39:50.538Z,39.60
2023-02-14T22:42:18.018Z,40.88
2023-02-14T22:44:45.386Z,41.60
2023-02-14T22:47:12.698Z,38.72
2023-02-14T22:49:40.025Z,39.17
2023-02-14T22:52:08.652Z,43.17
2023-02-14T22:54:35.931Z,35.97
2023-02-14T22:57:03.370Z,40.03
2023-02-14T22:59:32.052Z,38.20
2023-02-14T23:01:59.708Z,41.90
2023-02-14T23:04:29.466Z,39.35
2023-02-14T23:06:57.041Z,38.83
2023-02-14T23:09:25.954Z,40.88
2023-02-14T23:11:53.280Z,40.45
2023-02-14T23:14:38.649Z,40.17
2023-02-14T23:17:23.887Z,36.47
2023-02-14T23:20:08.851Z,39.65
2023-02-14T23:25:05.721Z,39.72
2023-02-14T23:27:34.373Z,39.47
2023-02-14T23:30:01.885Z,41.38
2023-02-14T23:32:29.617Z,41.80
2023-02-14T23:34:56.974Z,36.88
2023-02-14T23:37:24.304Z,38.80
2023-02-14T23:39:51.742Z,39.10
2023-02-14T23:42:20.413Z,40.30
2023-02-14T23:44:48.931Z,41.63
2023-02-14T23:47:16.282Z,38.17
2023-02-14T23:49:45.668Z,40.60
2023-02-14T23:52:13.911Z,38.85
2023-02-14T23:54:41.399Z,45.80
2023-02-14T23:57:09.112Z,40.15
2023-02-14T23:59:37.794Z,36.67
